Time;durP1;ratioP1;P1;durP2;ratioP2;P2;SDS_P1;SDS_P2;PMS_P1;PMS_P2;Temp;Humidity;BMP_temperature;BMP_pressure;BME280_temperature;BME280_humidity;BME280_pressure;Samples;Min_cycle;Max_cycle;Signal;HPM_P1;HPM_P2
2022/02/13 00:06:24;;;;;;;2.28;1.13;;;8.30;69.00;;;;;;20980769;28;20036;-76
2022/02/13 00:16:24;;;;;;;2.08;0.80;;;8.30;68.90;;;;;;20996440;28;20075;-75
2022/02/13 00:26:25;;;;;;;2.53;1.10;;;8.40;68.90;;;;;;20981207;28;20036;-74
2022/02/13 00:36:26;;;;;;;1.93;0.80;;;8.30;68.80;;;;;;20946907;28;20043;-74
2022/02/13 00:46:27;;;;;;;1.98;0.90;;;8.30;68.80;;;;;;20978195;28;20365;-74
2022/02/13 00:56:28;;;;;;;1.95;0.93;;;8.30;68.80;;;;;;20962047;28;20297;-75
2022/02/13 01:06:28;;;;;;;3.90;0.93;;;8.30;68.70;;;;;;20977753;28;20425;-75
2022/02/13 01:16:29;;;;;;;2.90;0.83;;;8.30;68.70;;;;;;20960510;28;20064;-74
2022/02/13 01:26:29;;;;;;;2.58;1.20;;;8.30;68.70;;;;;;20977956;28;20298;-74
2022/02/13 01:36:30;;;;;;;2.22;1.10;;;8.30;68.70;;;;;;20975680;28;20294;-74
2022/02/13 01:46:30;;;;;;;2.10;0.93;;;8.20;68.60;;;;;;20992368;28;20025;-74
2022/02/13 01:56:31;;;;;;;2.45;0.77;;;8.30;68.70;;;;;;21008822;28;20059;-77
2022/02/13 02:06:32;;;;;;;3.08;1.17;;;8.20;68.60;;;;;;20992707;28;20032;-75
2022/02/13 02:16:32;;;;;;;0.82;0.60;;;8.20;68.60;;;;;;21007466;28;20363;-74
2022/02/13 02:26:35;;;;;;;2.33;0.95;;;8.20;68.50;;;;;;20973377;28;20505;-74
2022/02/13 02:36:35;;;;;;;2.17;0.73;;;8.20;68.50;;;;;;21004800;28;20044;-74
2022/02/13 02:46:36;;;;;;;1.40;0.63;;;8.20;68.50;;;;;;20955451;28;20551;-75
2022/02/13 02:56:37;;;;;;;2.50;1.02;;;8.20;68.40;;;;;;21004155;28;20064;-74
2022/02/13 03:06:38;;;;;;;2.40;1.10;;;8.20;68.40;;;;;;21003577;28;20368;-75
2022/02/13 03:16:39;;;;;;;1.52;0.82;;;8.20;68.30;;;;;;20985043;28;20295;-75
2022/02/13 03:26:39;;;;;;;1.65;0.93;;;8.20;68.30;;;;;;21003220;28;20036;-75
2022/02/13 03:36:40;;;;;;;1.67;0.90;;;8.10;68.20;;;;;;20951685;28;20482;-75
2022/02/13 03:46:41;;;;;;;1.83;0.77;;;8.10;68.10;;;;;;20966831;28;20029;-74
2022/02/13 03:56:41;;;;;;;1.75;0.90;;;8.10;68.00;;;;;;20981394;28;20153;-74
2022/02/13 04:06:42;;;;;;;2.38;0.85;;;8.10;68.00;;;;;;20998817;28;20377;-74
2022/02/13 04:16:42;;;;;;;2.80;0.60;;;8.10;68.00;;;;;;20964577;28;20040;-75
2022/02/13 04:26:43;;;;;;;2.05;0.77;;;8.10;68.00;;;;;;20997247;28;20033;-77
2022/02/13 04:36:44;;;;;;;2.30;0.70;;;8.10;67.90;;;;;;20962074;28;20037;-74
2022/02/13 04:46:45;;;;;;;1.73;0.90;;;8.00;67.90;;;;;;20994980;28;20512;-74
2022/02/13 04:56:45;;;;;;;2.55;0.80;;;8.10;67.90;;;;;;20978047;28;20032;-75
2022/02/13 05:06:46;;;;;;;2.55;0.70;;;8.10;67.80;;;;;;20993979;28;20350;-76
2022/02/13 05:16:46;;;;;;;1.65;0.90;;;8.00;67.70;;;;;;20961189;28;20368;-76
2022/02/13 05:26:47;;;;;;;1.55;0.85;;;8.10;67.50;;;;;;20977690;28;20424;-74
2022/02/13 05:36:47;;;;;;;1.10;0.65;;;8.40;67.70;;;;;;20994151;28;20036;-75
2022/02/13 05:46:48;;;;;;;0.93;0.52;;;8.70;66.00;;;;;;20992267;28;20458;-74
2022/02/13 05:56:49;;;;;;;2.40;0.63;;;9.10;64.60;;;;;;20992985;28;20532;-73
2022/02/13 06:06:50;;;;;;;1.25;0.88;;;9.50;63.40;;;;;;20982966;28;20032;-74
2022/02/13 06:16:51;;;;;;;1.48;0.90;;;9.70;62.50;;;;;;20973251;28;20040;-75
2022/02/13 06:26:52;;;;;;;1.95;1.08;;;9.80;61.80;;;;;;20973533;28;20036;-75
2022/02/13 06:36:53;;;;;;;2.13;0.95;;;9.70;61.60;;;;;;20989623;28;20085;-75
2022/02/13 06:46:53;;;;;;;2.08;1.05;;;9.50;61.80;;;;;;20987358;28;20383;-75
2022/02/13 06:56:54;;;;;;;3.53;0.90;;;9.30;62.20;;;;;;20987688;28;20421;-74
2022/02/13 07:06:54;;;;;;;1.33;0.60;;;9.00;62.70;;;;;;21003583;28;20283;-75
2022/02/13 07:16:55;;;;;;;1.20;0.80;;;8.80;63.20;;;;;;20985361;28;20482;-74
2022/02/13 07:26:56;;;;;;;1.98;0.90;;;8.70;63.60;;;;;;21000821;28;20536;-76
2022/02/13 07:37:01;;;;;;;2.03;0.75;;;8.60;64.10;;;;;;20984794;28;20068;-75
2022/02/13 07:47:02;;;;;;;1.70;1.00;;;8.50;64.40;;;;;;20985684;28;20056;-74
2022/02/13 07:57:04;;;;;;;1.98;0.95;;;8.40;64.60;;;;;;20981286;28;20441;-75
2022/02/13 08:07:04;;;;;;;4.63;1.10;;;8.40;64.80;;;;;;20996534;28;20529;-74
2022/02/13 08:17:05;;;;;;;4.15;1.08;;;8.40;65.00;;;;;;20945803;28;20179;-76
2022/02/13 08:27:06;;;;;;;3.05;1.15;;;8.40;65.20;;;;;;20876735;28;20052;-74
2022/02/13 08:37:07;;;;;;;3.58;1.00;;;8.30;65.50;;;;;;20860808;28;20444;-73
2022/02/13 08:47:07;;;;;;;2.95;1.20;;;8.30;65.70;;;;;;20927359;28;20116;-71
2022/02/13 08:57:08;;;;;;;2.60;1.10;;;8.30;65.90;;;;;;20991279;28;20031;-75
2022/02/13 09:07:10;;;;;;;3.60;0.90;;;8.30;66.00;;;;;;20939790;28;20320;-75
2022/02/13 09:17:10;;;;;;;1.33;0.70;;;8.30;66.10;;;;;;20880979;28;20322;-72
2022/02/13 09:27:11;;;;;;;4.07;1.43;;;8.40;66.40;;;;;;20888807;28;20112;-73
2022/02/13 09:37:11;;;;;;;1.55;0.95;;;8.30;66.50;;;;;;20905046;28;20306;-73
2022/02/13 09:47:13;;;;;;;2.85;1.38;;;8.40;66.60;;;;;;20918310;28;20111;-74
2022/02/13 10:07:33;;;;;;;3.40;1.40;;;8.40;67.10;;;;;;20990837;28;20491;-75
2022/02/13 10:17:34;;;;;;;6.07;1.83;;;8.50;67.30;;;;;;20969969;28;20068;-74
2022/02/13 10:27:45;;;;;;;4.90;1.47;;;8.30;66.90;;;;;;20985756;28;20440;-74
2022/02/13 10:37:47;;;;;;;5.15;1.48;;;8.30;66.50;;;;;;21002671;28;20291;-75
2022/02/13 10:47:48;;;;;;;5.97;2.20;;;8.30;66.30;;;;;;20968522;28;20032;-76
2022/02/13 10:57:48;;;;;;;9.82;2.10;;;8.30;66.10;;;;;;20964388;28;20040;-82
2022/02/13 11:07:50;;;;;;;5.20;1.48;;;8.40;65.90;;;;;;20952036;28;20032;-82
2022/02/13 11:17:51;;;;;;;3.20;1.40;;;8.30;65.90;;;;;;20949045;28;20041;-74
2022/02/13 11:27:51;;;;;;;3.67;1.85;;;8.40;65.90;;;;;;20980909;28;20462;-70
2022/02/13 11:37:52;;;;;;;2.00;1.35;;;8.70;65.60;;;;;;20971906;28;20072;-74
2022/02/13 11:47:53;;;;;;;5.20;1.40;;;8.90;65.20;;;;;;20962044;28;20379;-74
2022/02/13 11:58:00;;;;;;;21.97;3.47;;;9.10;64.80;;;;;;20882800;28;20038;-72
2022/02/13 12:08:01;;;;;;;7.35;1.77;;;9.40;64.10;;;;;;20976395;28;20327;-72
2022/02/13 12:18:20;;;;;;;12.00;1.13;;;9.40;63.80;;;;;;20992027;28;20402;-72
2022/02/13 12:28:20;;;;;;;3.17;1.02;;;9.30;64.00;;;;;;20958952;28;20033;-73
2022/02/13 12:38:21;;;;;;;3.50;1.45;;;9.30;64.10;;;;;;20959170;28;20036;-74
2022/02/13 12:48:25;;;;;;;3.13;1.55;;;9.20;64.20;;;;;;20991301;28;20378;-73
2022/02/13 12:58:26;;;;;;;3.92;1.13;;;9.10;64.30;;;;;;20950542;28;20375;-73
2022/02/13 13:08:28;;;;;;;4.97;1.52;;;9.10;64.40;;;;;;20906204;28;20120;-70
2022/02/13 13:18:43;;;;;;;3.13;1.17;;;9.00;64.50;;;;;;20978408;28;20444;-71
2022/02/13 13:49:17;;;;;;;1.67;1.20;;;9.00;64.80;;;;;;22359357;22;20483;-74
2022/02/13 13:59:18;;;;;;;2.80;0.93;;;9.00;64.90;;;;;;20868740;28;20040;-73
2022/02/13 14:09:18;;;;;;;1.35;0.77;;;9.10;64.80;;;;;;20901727;28;20041;-72
2022/02/13 14:19:19;;;;;;;1.70;0.88;;;9.00;64.80;;;;;;20882056;28;20040;-71
2022/02/13 14:29:20;;;;;;;1.50;0.68;;;9.00;65.10;;;;;;20880125;28;20045;-72
2022/02/13 14:39:20;;;;;;;3.50;1.00;;;8.90;65.30;;;;;;20886258;28;20059;-72
2022/02/13 14:49:21;;;;;;;2.90;0.95;;;8.80;65.60;;;;;;20885524;28;20044;-72
2022/02/13 14:59:21;;;;;;;1.00;0.57;;;8.70;65.80;;;;;;20901646;28;20052;-72
2022/02/13 15:09:22;;;;;;;1.23;0.65;;;8.60;66.00;;;;;;20899851;28;20122;-72
2022/02/13 15:19:24;;;;;;;1.25;0.63;;;8.60;66.30;;;;;;20866361;28;20063;-72
2022/02/13 15:29:27;;;;;;;1.40;0.70;;;8.60;66.50;;;;;;20882089;28;20325;-71
2022/02/13 15:39:27;;;;;;;1.25;0.82;;;8.60;66.70;;;;;;20896984;28;20116;-73
2022/02/13 15:49:28;;;;;;;3.42;0.85;;;8.60;66.90;;;;;;20914663;28;20136;-72
2022/02/13 15:59:29;;;;;;;1.05;0.55;;;8.70;67.00;;;;;;20879270;28;20083;-72
2022/02/13 16:09:29;;;;;;;1.38;0.50;;;8.70;66.90;;;;;;20878705;28;20045;-70
2022/02/13 16:19:30;;;;;;;2.15;1.17;;;8.90;66.70;;;;;;20877761;28;20036;-71
2022/02/13 16:29:31;;;;;;;1.38;0.73;;;9.10;66.30;;;;;;20876899;28;20127;-71
2022/02/13 16:39:32;;;;;;;1.23;1.08;;;9.30;65.80;;;;;;20892825;28;20091;-71
2022/02/13 16:49:33;;;;;;;1.35;0.80;;;9.40;65.30;;;;;;20892635;28;20072;-70
2022/02/13 16:59:34;;;;;;;0.85;0.50;;;9.50;65.00;;;;;;20892795;28;20124;-71
2022/02/13 17:09:34;;;;;;;1.63;0.95;;;9.40;65.10;;;;;;20872296;28;20072;-71
2022/02/13 17:19:35;;;;;;;2.47;0.88;;;9.20;65.30;;;;;;20845098;28;20525;-71
2022/02/13 17:29:35;;;;;;;0.50;0.38;;;9.10;65.70;;;;;;20890233;28;20068;-70
2022/02/13 17:39:36;;;;;;;1.23;0.82;;;8.90;66.10;;;;;;20873499;28;20029;-71
2022/02/13 17:49:37;;;;;;;1.83;0.95;;;8.90;66.40;;;;;;20881576;28;20035;-69
2022/02/13 17:59:37;;;;;;;1.75;0.73;;;8.80;66.60;;;;;;20986940;28;20044;-74
2022/02/13 18:09:39;;;;;;;1.87;0.93;;;8.70;66.80;;;;;;20889185;28;20041;-73
2022/02/13 18:19:39;;;;;;;1.02;0.60;;;8.70;67.10;;;;;;20894205;28;20287;-71
2022/02/13 18:29:42;;;;;;;2.50;0.85;;;8.60;67.20;;;;;;20869866;28;20038;-73
2022/02/13 18:39:43;;;;;;;1.17;0.60;;;8.70;67.40;;;;;;20850601;28;20060;-73
2022/02/13 18:49:43;;;;;;;3.43;1.10;;;8.60;67.50;;;;;;20849361;28;20191;-72
2022/02/13 18:59:44;;;;;;;0.68;0.50;;;8.60;67.70;;;;;;20916478;28;20279;-71
2022/02/13 19:09:45;;;;;;;0.95;0.60;;;8.50;67.80;;;;;;20867100;28;20128;-71
2022/02/13 19:19:45;;;;;;;0.93;0.43;;;8.50;67.90;;;;;;20817229;28;20428;-71
2022/02/13 19:29:47;;;;;;;1.40;0.77;;;8.50;68.10;;;;;;20797700;28;20142;-73
2022/02/13 19:39:48;;;;;;;1.40;0.80;;;8.50;68.10;;;;;;20834091;28;20029;-74
2022/02/13 19:49:49;;;;;;;0.82;0.57;;;8.50;68.20;;;;;;20845288;28;20039;-77
2022/02/13 19:59:49;;;;;;;1.95;0.63;;;8.50;68.30;;;;;;20890057;28;20037;-69
2022/02/13 20:09:50;;;;;;;1.98;0.65;;;8.50;68.30;;;;;;20824392;28;20206;-69
2022/02/13 20:19:52;;;;;;;1.80;0.80;;;8.50;68.30;;;;;;20864261;28;20033;-69
2022/02/13 20:29:52;;;;;;;1.25;0.70;;;8.50;68.40;;;;;;20829421;28;20037;-70
2022/02/13 20:39:53;;;;;;;1.58;0.60;;;8.50;68.40;;;;;;20841071;28;20119;-69
2022/02/13 20:49:54;;;;;;;1.08;0.75;;;8.50;68.40;;;;;;20830413;28;20044;-72
2022/02/13 20:59:54;;;;;;;2.15;0.93;;;8.50;68.40;;;;;;20835551;28;20065;-70
2022/02/13 21:09:56;;;;;;;2.58;0.70;;;8.50;68.50;;;;;;20832445;28;20110;-70
2022/02/13 21:19:57;;;;;;;1.55;0.73;;;8.50;68.50;;;;;;20848282;28;20029;-75
2022/02/13 21:29:57;;;;;;;3.38;1.05;;;8.50;68.50;;;;;;20845016;28;20128;-70
2022/02/13 21:39:58;;;;;;;1.25;0.60;;;8.50;68.50;;;;;;20841772;28;20033;-70
2022/02/13 21:49:59;;;;;;;1.35;0.75;;;8.50;68.60;;;;;;20857663;28;20300;-70
2022/02/13 22:00:00;;;;;;;1.10;0.80;;;8.50;68.60;;;;;;20845626;28;20051;-71
2022/02/13 22:10:00;;;;;;;1.35;0.63;;;8.50;68.60;;;;;;20845426;28;20375;-71
2022/02/13 22:20:01;;;;;;;1.17;0.52;;;8.40;68.60;;;;;;20859558;28;20029;-70
2022/02/13 22:30:03;;;;;;;0.60;0.47;;;8.50;68.60;;;;;;20863593;28;20106;-71
2022/02/13 22:40:05;;;;;;;1.50;0.77;;;8.50;68.70;;;;;;20840302;28;20280;-71
2022/02/13 22:50:05;;;;;;;1.55;0.65;;;8.50;68.70;;;;;;20814908;28;20444;-71
2022/02/13 23:00:09;;;;;;;1.52;0.60;;;8.50;68.80;;;;;;20814595;28;20038;-70
2022/02/13 23:20:29;;;;;;;1.08;0.60;;;8.40;68.70;;;;;;20803558;28;20060;-71
2022/02/13 23:30:31;;;;;;;1.08;0.63;;;8.40;68.70;;;;;;20801043;28;20056;-70
2022/02/13 23:40:32;;;;;;;1.00;0.80;;;8.50;68.90;;;;;;20799264;28;20029;-70
2022/02/13 23:50:33;;;;;;;2.25;0.65;;;8.50;68.90;;;;;;20815217;28;20315;-70
